Time;durP1;ratioP1;P1;durP2;ratioP2;P2;SDS_P1;SDS_P2;PMS_P1;PMS_P2;Temp;Humidity;BMP_temperature;BMP_pressure;BME280_temperature;BME280_humidity;BME280_pressure;Samples;Min_cycle;Max_cycle;Signal;HPM_P1;HPM_P2
2023/03/08 00:02:01;;;;;;;1.10;0.10;;;;;;;;;;6187461;23;20013;-80
2023/03/08 00:04:27;;;;;;;3.22;0.30;;;;;;;;;;6187319;23;20009;-80
2023/03/08 00:06:53;;;;;;;2.28;0.40;;;;;;;;;;6187613;23;20001;-80
2023/03/08 00:09:19;;;;;;;2.65;0.20;;;;;;;;;;6187455;23;19997;-80
2023/03/08 00:11:45;;;;;;;1.85;0.35;;;;;;;;;;6160848;23;20127;-80
2023/03/08 00:14:11;;;;;;;1.13;0.20;;;;;;;;;;6187286;23;20316;-80
2023/03/08 00:16:37;;;;;;;4.90;0.20;;;;;;;;;;6187420;23;20051;-80
2023/03/08 00:19:03;;;;;;;0.10;0.10;;;;;;;;;;6188138;23;20080;-80
2023/03/08 00:21:29;;;;;;;0.28;0.10;;;;;;;;;;6190208;23;20327;-80
2023/03/08 00:23:55;;;;;;;0.22;0.17;;;;;;;;;;6164437;23;20016;-80
2023/03/08 00:26:22;;;;;;;1.40;0.25;;;;;;;;;;6190964;23;20006;-80
2023/03/08 00:28:48;;;;;;;2.83;0.40;;;;;;;;;;6190259;23;19997;-80
2023/03/08 00:31:14;;;;;;;2.75;0.20;;;;;;;;;;6189348;23;20001;-80
2023/03/08 00:33:40;;;;;;;1.88;0.35;;;;;;;;;;6191444;23;20005;-80
2023/03/08 00:36:19;;;;;;;2.35;0.28;;;;;;;;;;6166583;23;20012;-81
2023/03/08 00:38:45;;;;;;;0.40;0.20;;;;;;;;;;6191851;23;19997;-81
2023/03/08 00:41:11;;;;;;;0.20;0.20;;;;;;;;;;6191708;23;20378;-81
2023/03/08 00:43:38;;;;;;;2.60;0.32;;;;;;;;;;6192511;23;20020;-80
2023/03/08 00:46:04;;;;;;;1.77;0.20;;;;;;;;;;6191509;23;20009;-80
2023/03/08 00:48:30;;;;;;;1.70;0.20;;;;;;;;;;6191752;23;19998;-80
2023/03/08 00:50:57;;;;;;;1.15;0.30;;;;;;;;;;6190710;23;20406;-80
2023/03/08 00:53:23;;;;;;;0.80;0.20;;;;;;;;;;6191094;23;20055;-80
2023/03/08 00:55:56;;;;;;;5.07;0.40;;;;;;;;;;6175864;23;20036;-80
2023/03/08 00:58:23;;;;;;;1.52;0.30;;;;;;;;;;6189208;23;20005;-80
2023/03/08 01:00:49;;;;;;;1.95;0.30;;;;;;;;;;6190765;23;20044;-80
2023/03/08 01:03:16;;;;;;;0.98;0.15;;;;;;;;;;6191555;23;20001;-80
2023/03/08 01:05:44;;;;;;;0.28;0.10;;;;;;;;;;6190794;23;20028;-80
2023/03/08 01:08:11;;;;;;;0.30;0.10;;;;;;;;;;6190359;23;20001;-80
2023/03/08 01:10:36;;;;;;;0.52;0.13;;;;;;;;;;6189849;23;20036;-80
2023/03/08 01:13:04;;;;;;;1.13;0.20;;;;;;;;;;6189242;23;20024;-80
2023/03/08 01:15:48;;;;;;;0.43;0.10;;;;;;;;;;6189972;23;20001;-80
2023/03/08 01:18:14;;;;;;;1.13;0.22;;;;;;;;;;6189465;23;20331;-80
2023/03/08 01:20:40;;;;;;;3.63;0.28;;;;;;;;;;6189275;23;20314;-80
2023/03/08 01:23:06;;;;;;;3.00;1.45;;;;;;;;;;6189482;23;20681;-80
2023/03/08 01:25:32;;;;;;;0.70;0.40;;;;;;;;;;6189329;23;20001;-80
2023/03/08 01:27:58;;;;;;;0.20;0.20;;;;;;;;;;6189288;23;20001;-80
2023/03/08 01:30:24;;;;;;;2.90;0.60;;;;;;;;;;6188955;23;20060;-80
2023/03/08 01:32:50;;;;;;;1.85;0.30;;;;;;;;;;6188887;23;19997;-80
2023/03/08 01:35:16;;;;;;;2.20;0.20;;;;;;;;;;6189168;23;20408;-80
2023/03/08 01:37:42;;;;;;;0.77;0.30;;;;;;;;;;6187476;23;20012;-80
2023/03/08 01:40:09;;;;;;;4.95;0.20;;;;;;;;;;6190477;23;20001;-80
2023/03/08 01:42:36;;;;;;;0.63;0.10;;;;;;;;;;6188875;23;20009;-80
2023/03/08 01:45:04;;;;;;;0.28;0.10;;;;;;;;;;6190406;23;20004;-80
2023/03/08 01:47:31;;;;;;;0.98;0.20;;;;;;;;;;6190865;23;20410;-80
2023/03/08 01:50:03;;;;;;;2.47;0.40;;;;;;;;;;6190665;23;20001;-80
2023/03/08 01:52:38;;;;;;;1.60;0.25;;;;;;;;;;6190214;23;20004;-80
2023/03/08 01:55:05;;;;;;;0.32;0.20;;;;;;;;;;6189498;23;20443;-80
2023/03/08 01:57:38;;;;;;;0.20;0.10;;;;;;;;;;6163945;23;20005;-80
2023/03/08 02:00:07;;;;;;;1.95;0.30;;;;;;;;;;6190016;23;20009;-80
2023/03/08 02:02:36;;;;;;;1.38;0.20;;;;;;;;;;6163379;23;20099;-80
2023/03/08 02:05:02;;;;;;;1.30;0.32;;;;;;;;;;6190088;23;19997;-80
2023/03/08 02:07:28;;;;;;;0.75;0.20;;;;;;;;;;6163338;23;20001;-80
2023/03/08 02:09:54;;;;;;;1.65;0.30;;;;;;;;;;6190369;23;19997;-80
2023/03/08 02:12:21;;;;;;;2.35;0.32;;;;;;;;;;6190300;23;20051;-80
2023/03/08 02:14:47;;;;;;;1.83;0.17;;;;;;;;;;6189927;23;20048;-80
2023/03/08 02:17:13;;;;;;;0.30;0.20;;;;;;;;;;6189429;23;20033;-80
2023/03/08 02:19:57;;;;;;;0.75;0.40;;;;;;;;;;6189557;23;20419;-80
2023/03/08 02:22:23;;;;;;;1.23;0.88;;;;;;;;;;6189417;23;20096;-80
2023/03/08 02:24:49;;;;;;;0.40;0.10;;;;;;;;;;6189668;23;20005;-80
2023/03/08 02:27:21;;;;;;;0.80;0.28;;;;;;;;;;6189762;23;20484;-80
2023/03/08 02:29:47;;;;;;;0.85;0.20;;;;;;;;;;6189689;23;20060;-80
2023/03/08 02:32:14;;;;;;;0.93;0.30;;;;;;;;;;6189333;23;20068;-80
2023/03/08 02:34:40;;;;;;;1.30;0.20;;;;;;;;;;6189865;23;20459;-80
2023/03/08 02:37:06;;;;;;;0.65;0.20;;;;;;;;;;6189722;23;20006;-80
2023/03/08 02:39:33;;;;;;;0.80;0.30;;;;;;;;;;6189796;23;20071;-80
2023/03/08 02:41:59;;;;;;;1.55;0.52;;;;;;;;;;6190040;23;20005;-80
2023/03/08 02:44:25;;;;;;;0.57;0.52;;;;;;;;;;6190074;23;20316;-80
2023/03/08 02:46:52;;;;;;;1.13;0.30;;;;;;;;;;6163137;23;19997;-80
2023/03/08 02:49:17;;;;;;;2.53;0.52;;;;;;;;;;6189765;23;19997;-80
2023/03/08 02:51:43;;;;;;;1.35;0.40;;;;;;;;;;6189354;23;20001;-80
2023/03/08 02:54:09;;;;;;;0.90;0.50;;;;;;;;;;6189742;23;20336;-80
2023/03/08 02:56:36;;;;;;;2.10;0.55;;;;;;;;;;6188896;23;20019;-80
2023/03/08 02:59:02;;;;;;;0.98;0.50;;;;;;;;;;6162734;23;20009;-80
2023/03/08 03:01:28;;;;;;;3.53;0.52;;;;;;;;;;6189131;23;20068;-80
2023/03/08 03:03:54;;;;;;;0.80;0.30;;;;;;;;;;6189391;23;19997;-80
2023/03/08 03:06:20;;;;;;;1.08;0.35;;;;;;;;;;6189794;23;20064;-80
2023/03/08 03:08:47;;;;;;;0.77;0.60;;;;;;;;;;6190100;23;20001;-80
2023/03/08 03:11:14;;;;;;;0.50;0.35;;;;;;;;;;6189790;23;20001;-80
2023/03/08 03:13:40;;;;;;;0.73;0.32;;;;;;;;;;6188934;23;19997;-80
2023/03/08 03:16:11;;;;;;;1.65;0.30;;;;;;;;;;6188866;23;20439;-80
2023/03/08 03:18:37;;;;;;;;;;;;;;;;;;6189454;23;20088;-80
2023/03/08 03:21:04;;;;;;;1.38;0.20;;;;;;;;;;6189391;23;19903;-80
2023/03/08 03:23:34;;;;;;;1.65;0.28;;;;;;;;;;6162594;23;20005;-80
2023/03/08 03:26:07;;;;;;;4.53;0.43;;;;;;;;;;6190054;23;20004;-80
2023/03/08 03:28:33;;;;;;;0.30;0.10;;;;;;;;;;6189455;23;20072;-80
2023/03/08 03:30:59;;;;;;;2.08;0.17;;;;;;;;;;6189263;23;20001;-80
2023/03/08 03:33:25;;;;;;;1.10;0.20;;;;;;;;;;6189127;23;19993;-80
2023/03/08 03:35:51;;;;;;;0.10;0.10;;;;;;;;;;6190333;23;19997;-80
2023/03/08 03:38:17;;;;;;;0.57;0.20;;;;;;;;;;6189515;23;20335;-80
2023/03/08 03:40:43;;;;;;;1.90;0.30;;;;;;;;;;6163046;23;20001;-80
2023/03/08 03:43:09;;;;;;;1.35;0.25;;;;;;;;;;6189436;23;20001;-80
2023/03/08 03:45:35;;;;;;;2.75;0.40;;;;;;;;;;6188931;23;20416;-80
2023/03/08 03:48:01;;;;;;;0.60;0.20;;;;;;;;;;6163445;23;20432;-80
2023/03/08 03:50:27;;;;;;;2.17;0.20;;;;;;;;;;6189533;23;20008;-80
2023/03/08 03:52:53;;;;;;;0.60;0.40;;;;;;;;;;6189274;23;20324;-80
2023/03/08 03:55:19;;;;;;;1.20;0.20;;;;;;;;;;6188451;23;20017;-80
2023/03/08 03:57:45;;;;;;;1.70;0.50;;;;;;;;;;6162962;23;20084;-80
2023/03/08 04:00:11;;;;;;;1.88;0.30;;;;;;;;;;6188940;23;20069;-80
2023/03/08 04:02:37;;;;;;;3.45;0.40;;;;;;;;;;6189484;23;20055;-80
2023/03/08 04:05:04;;;;;;;0.20;0.20;;;;;;;;;;6204204;23;20056;-80
2023/03/08 04:07:30;;;;;;;2.22;0.35;;;;;;;;;;6197926;23;20002;-80
2023/03/08 04:09:56;;;;;;;1.33;0.30;;;;;;;;;;6196077;23;20001;-80
2023/03/08 04:12:22;;;;;;;0.68;0.32;;;;;;;;;;6169962;23;20024;-80
2023/03/08 04:14:48;;;;;;;3.05;0.50;;;;;;;;;;6195336;23;20068;-80
2023/03/08 04:17:14;;;;;;;0.65;0.20;;;;;;;;;;6195082;23;20339;-80
2023/03/08 04:19:40;;;;;;;0.38;0.20;;;;;;;;;;6194947;23;20053;-80
2023/03/08 04:22:06;;;;;;;1.92;0.28;;;;;;;;;;6194498;23;20076;-80
2023/03/08 04:24:32;;;;;;;0.75;0.20;;;;;;;;;;6194089;23;20001;-80
2023/03/08 04:26:58;;;;;;;0.63;0.28;;;;;;;;;;6194187;23;20004;-80
2023/03/08 04:29:24;;;;;;;3.20;0.40;;;;;;;;;;6193995;23;19997;-80
2023/03/08 04:31:50;;;;;;;0.50;0.13;;;;;;;;;;6194736;23;20008;-80
2023/03/08 04:34:16;;;;;;;2.05;0.57;;;;;;;;;;6194112;23;20052;-80
2023/03/08 04:36:42;;;;;;;1.55;0.30;;;;;;;;;;6193461;23;20001;-80
2023/03/08 04:39:07;;;;;;;1.67;0.60;;;;;;;;;;6193466;23;19997;-80
2023/03/08 04:41:33;;;;;;;2.50;1.95;;;;;;;;;;6193211;23;20005;-80
2023/03/08 04:43:59;;;;;;;0.65;0.40;;;;;;;;;;6193091;23;20001;-80
2023/03/08 04:46:26;;;;;;;1.98;0.30;;;;;;;;;;6193323;23;20001;-80
2023/03/08 04:48:54;;;;;;;1.45;0.30;;;;;;;;;;6191898;23;20068;-80
2023/03/08 04:51:27;;;;;;;2.25;0.30;;;;;;;;;;6191839;23;20028;-80
2023/03/08 04:53:52;;;;;;;1.13;0.35;;;;;;;;;;6165003;23;20028;-80
2023/03/08 04:56:18;;;;;;;0.93;0.30;;;;;;;;;;6190681;23;20339;-80
2023/03/08 04:58:45;;;;;;;2.28;0.30;;;;;;;;;;6190759;23;20020;-80
2023/03/08 05:01:11;;;;;;;0.85;0.38;;;;;;;;;;6190224;23;20313;-80
2023/03/08 05:03:37;;;;;;;0.95;0.20;;;;;;;;;;6191194;23;20016;-80
2023/03/08 05:06:03;;;;;;;0.68;0.30;;;;;;;;;;6190480;23;20439;-80
2023/03/08 05:08:29;;;;;;;1.77;0.30;;;;;;;;;;6189795;23;20056;-80
2023/03/08 05:10:59;;;;;;;1.67;0.40;;;;;;;;;;6190064;23;20005;-80
2023/03/08 05:13:26;;;;;;;0.80;0.40;;;;;;;;;;6191564;23;20328;-80
2023/03/08 05:15:52;;;;;;;1.42;0.40;;;;;;;;;;6191451;23;20004;-80
2023/03/08 05:18:18;;;;;;;0.30;0.30;;;;;;;;;;6191378;23;20363;-80
2023/03/08 05:20:45;;;;;;;1.38;0.40;;;;;;;;;;6191231;23;20328;-80
2023/03/08 05:23:11;;;;;;;0.55;0.30;;;;;;;;;;6191556;23;20009;-80
2023/03/08 05:25:42;;;;;;;3.63;0.20;;;;;;;;;;6191829;23;20363;-80
2023/03/08 05:28:08;;;;;;;1.05;0.32;;;;;;;;;;6191645;23;19997;-80
2023/03/08 05:30:34;;;;;;;0.55;0.35;;;;;;;;;;6190217;23;20028;-80
2023/03/08 05:33:06;;;;;;;1.67;0.40;;;;;;;;;;6191636;23;19997;-80
2023/03/08 05:35:53;;;;;;;7.05;1.50;;;;;;;;;;6191055;23;20005;-80
2023/03/08 05:38:20;;;;;;;4.03;0.43;;;;;;;;;;6164321;23;20008;-80
2023/03/08 05:40:46;;;;;;;3.10;0.40;;;;;;;;;;6164125;23;20013;-80
2023/03/08 05:43:12;;;;;;;1.48;0.50;;;;;;;;;;6191279;23;20009;-80
2023/03/08 05:45:38;;;;;;;4.57;1.77;;;;;;;;;;6190187;23;20001;-80
2023/03/08 05:48:05;;;;;;;9.48;4.47;;;;;;;;;;6190488;23;20001;-79
2023/03/08 05:50:31;;;;;;;16.73;11.45;;;;;;;;;;6189825;23;20016;-80
2023/03/08 05:52:57;;;;;;;12.93;8.90;;;;;;;;;;6189834;23;20005;-78
2023/03/08 05:55:23;;;;;;;8.48;6.22;;;;;;;;;;6189472;23;20044;-79
2023/03/08 05:57:49;;;;;;;6.03;4.07;;;;;;;;;;6189815;23;19997;-79
2023/03/08 06:00:15;;;;;;;7.57;4.93;;;;;;;;;;6189013;23;20431;-79
2023/03/08 06:02:41;;;;;;;6.55;4.95;;;;;;;;;;6188429;23;20001;-80
2023/03/08 06:05:08;;;;;;;5.18;2.80;;;;;;;;;;6187126;23;20331;-80
2023/03/08 06:07:34;;;;;;;4.03;0.95;;;;;;;;;;6188071;23;20071;-79
2023/03/08 06:10:00;;;;;;;13.05;5.97;;;;;;;;;;6189484;23;20002;-79
2023/03/08 06:12:26;;;;;;;12.55;4.88;;;;;;;;;;6189910;23;20001;-79
2023/03/08 06:14:52;;;;;;;17.40;6.03;;;;;;;;;;6187780;23;20001;-79
2023/03/08 06:17:31;;;;;;;12.88;4.20;;;;;;;;;;6187236;23;20005;-79
2023/03/08 06:20:03;;;;;;;2.70;0.98;;;;;;;;;;6187687;23;20453;-78
2023/03/08 06:22:29;;;;;;;3.22;0.70;;;;;;;;;;6188221;23;20040;-78
2023/03/08 06:24:55;;;;;;;2.30;0.65;;;;;;;;;;6187670;23;20687;-79
2023/03/08 06:27:21;;;;;;;4.60;0.90;;;;;;;;;;6189476;23;20006;-79
2023/03/08 06:29:47;;;;;;;2.15;0.50;;;;;;;;;;6187543;23;20001;-77
2023/03/08 06:32:13;;;;;;;1.02;0.52;;;;;;;;;;6187665;23;19997;-77
2023/03/08 06:34:39;;;;;;;2.45;0.50;;;;;;;;;;6187261;23;19993;-77
2023/03/08 06:37:05;;;;;;;4.35;0.75;;;;;;;;;;6187313;23;20076;-77
2023/03/08 06:39:33;;;;;;;4.85;2.20;;;;;;;;;;6187425;23;20012;-77
2023/03/08 06:42:01;;;;;;;2.65;1.75;;;;;;;;;;6162819;23;20037;-77
2023/03/08 06:44:27;;;;;;;4.68;2.10;;;;;;;;;;6191616;23;20078;-78
2023/03/08 06:46:53;;;;;;;1.95;1.35;;;;;;;;;;6191268;23;20039;-77
2023/03/08 06:49:19;;;;;;;2.30;1.25;;;;;;;;;;6189519;23;20351;-77
2023/03/08 06:51:45;;;;;;;3.97;0.90;;;;;;;;;;6187121;23;20008;-78
2023/03/08 06:54:16;;;;;;;4.90;1.73;;;;;;;;;;6186827;23;20303;-77
2023/03/08 06:56:42;;;;;;;3.38;2.35;;;;;;;;;;6186887;23;20328;-78
2023/03/08 06:59:09;;;;;;;1.33;1.05;;;;;;;;;;6186708;23;20005;-77
2023/03/08 07:01:35;;;;;;;2.13;1.30;;;;;;;;;;6187210;23;20087;-78
2023/03/08 07:04:01;;;;;;;2.20;1.10;;;;;;;;;;6187122;23;20040;-78
2023/03/08 07:06:27;;;;;;;4.05;1.33;;;;;;;;;;6160948;23;20512;-78
2023/03/08 07:08:53;;;;;;;1.67;1.20;;;;;;;;;;6161725;23;20008;-78
2023/03/08 07:11:19;;;;;;;3.33;1.00;;;;;;;;;;6188500;23;20005;-78
2023/03/08 07:13:45;;;;;;;2.90;1.50;;;;;;;;;;6187033;23;20028;-78
2023/03/08 07:16:12;;;;;;;1.58;1.00;;;;;;;;;;6187297;23;20104;-77
2023/03/08 07:18:38;;;;;;;2.80;0.93;;;;;;;;;;6187482;23;20012;-77
2023/03/08 07:21:04;;;;;;;2.38;1.65;;;;;;;;;;6186850;23;20428;-77
2023/03/08 07:23:30;;;;;;;1.70;1.20;;;;;;;;;;6160662;23;20012;-77
2023/03/08 07:25:56;;;;;;;5.05;1.30;;;;;;;;;;6187129;23;20004;-77
2023/03/08 07:28:22;;;;;;;3.97;1.55;;;;;;;;;;6186908;23;20009;-78
2023/03/08 07:30:49;;;;;;;2.40;1.30;;;;;;;;;;6186891;23;20005;-77
2023/03/08 07:33:16;;;;;;;5.22;1.35;;;;;;;;;;6186915;23;19997;-77
2023/03/08 07:35:42;;;;;;;1.55;1.00;;;;;;;;;;6186144;23;20001;-77
2023/03/08 07:38:08;;;;;;;2.55;1.00;;;;;;;;;;6186506;23;20305;-77
2023/03/08 07:40:41;;;;;;;3.83;1.17;;;;;;;;;;6186358;23;20007;-78
2023/03/08 07:43:17;;;;;;;2.03;1.30;;;;;;;;;;6186488;23;20003;-78
2023/03/08 07:45:43;;;;;;;3.13;1.30;;;;;;;;;;6186570;23;20007;-77
2023/03/08 07:48:09;;;;;;;2.55;1.10;;;;;;;;;;6185951;23;19997;-78
2023/03/08 07:50:35;;;;;;;2.75;1.10;;;;;;;;;;6185940;23;20028;-77
2023/03/08 07:53:01;;;;;;;1.52;1.13;;;;;;;;;;6186598;23;20001;-78
2023/03/08 07:55:27;;;;;;;6.38;1.30;;;;;;;;;;6185839;23;20324;-78
2023/03/08 07:57:53;;;;;;;2.75;1.30;;;;;;;;;;6185783;23;19996;-77
2023/03/08 08:00:19;;;;;;;2.17;1.50;;;;;;;;;;6185612;23;20047;-77
2023/03/08 08:02:46;;;;;;;3.90;1.50;;;;;;;;;;6186000;23;20005;-77
2023/03/08 08:05:12;;;;;;;6.35;2.22;;;;;;;;;;6185932;23;20001;-77
2023/03/08 08:07:38;;;;;;;3.47;1.88;;;;;;;;;;6185748;23;20002;-77
2023/03/08 08:10:05;;;;;;;5.93;3.30;;;;;;;;;;6185863;23;20043;-77
2023/03/08 08:12:31;;;;;;;5.35;3.10;;;;;;;;;;6185929;23;19997;-77
2023/03/08 08:14:58;;;;;;;3.42;1.73;;;;;;;;;;6185365;23;20005;-77
2023/03/08 08:17:25;;;;;;;2.20;1.48;;;;;;;;;;6185872;23;20059;-77
2023/03/08 08:19:51;;;;;;;4.13;1.40;;;;;;;;;;6185449;23;20597;-77
2023/03/08 08:22:17;;;;;;;2.63;1.60;;;;;;;;;;6185334;23;20007;-77
2023/03/08 08:24:43;;;;;;;1.75;1.40;;;;;;;;;;6185369;23;20029;-77
2023/03/08 08:27:09;;;;;;;2.22;1.10;;;;;;;;;;6185281;23;20005;-77
2023/03/08 08:29:36;;;;;;;3.88;1.15;;;;;;;;;;6185329;23;20660;-77
2023/03/08 08:32:03;;;;;;;2.05;1.10;;;;;;;;;;6183998;23;19997;-76
2023/03/08 08:34:29;;;;;;;3.95;1.40;;;;;;;;;;6185318;23;20004;-76
2023/03/08 08:36:55;;;;;;;1.75;1.20;;;;;;;;;;6185320;23;19994;-76
2023/03/08 08:39:21;;;;;;;2.15;1.13;;;;;;;;;;6185619;23;20408;-76
2023/03/08 08:41:48;;;;;;;2.60;1.30;;;;;;;;;;6185466;23;20496;-77
2023/03/08 08:44:14;;;;;;;3.22;1.42;;;;;;;;;;6185647;23;20028;-77
2023/03/08 08:46:40;;;;;;;1.88;1.20;;;;;;;;;;6185263;23;20004;-77
2023/03/08 08:49:06;;;;;;;4.80;1.40;;;;;;;;;;6186634;23;20392;-77
2023/03/08 08:51:32;;;;;;;1.63;1.30;;;;;;;;;;6186429;23;20080;-77
2023/03/08 08:53:58;;;;;;;2.50;1.23;;;;;;;;;;6187224;23;20080;-77
2023/03/08 08:56:25;;;;;;;3.28;1.88;;;;;;;;;;6187061;23;20305;-77
2023/03/08 08:58:51;;;;;;;2.60;1.63;;;;;;;;;;6186970;23;20001;-77
2023/03/08 09:01:18;;;;;;;3.05;1.50;;;;;;;;;;6186811;23;20055;-77
2023/03/08 09:03:45;;;;;;;5.32;1.70;;;;;;;;;;6186503;23;20033;-77
2023/03/08 09:06:11;;;;;;;3.88;1.63;;;;;;;;;;6185353;23;20000;-77
2023/03/08 09:08:48;;;;;;;2.55;1.40;;;;;;;;;;6185256;23;20528;-77
2023/03/08 09:11:14;;;;;;;1.48;1.38;;;;;;;;;;6184940;23;20024;-77
2023/03/08 09:13:41;;;;;;;2.63;1.70;;;;;;;;;;6185206;23;19993;-77
2023/03/08 09:16:16;;;;;;;2.95;1.38;;;;;;;;;;6185864;23;20005;-77
2023/03/08 09:18:42;;;;;;;4.20;1.70;;;;;;;;;;6185271;23;20001;-77
2023/03/08 09:21:08;;;;;;;5.78;2.13;;;;;;;;;;6185095;23;20005;-77
2023/03/08 09:23:34;;;;;;;2.70;2.08;;;;;;;;;;6184878;23;19997;-77
2023/03/08 09:26:00;;;;;;;3.70;2.33;;;;;;;;;;6185182;23;20001;-77
2023/03/08 09:28:26;;;;;;;5.10;2.40;;;;;;;;;;6185331;23;20073;-77
2023/03/08 09:30:52;;;;;;;4.13;2.60;;;;;;;;;;6158733;23;20005;-77
2023/03/08 09:33:18;;;;;;;12.80;6.95;;;;;;;;;;6185463;23;20001;-76
2023/03/08 09:35:44;;;;;;;5.22;3.40;;;;;;;;;;6184899;23;20001;-77
2023/03/08 09:38:10;;;;;;;6.72;3.35;;;;;;;;;;6185083;23;19997;-77
2023/03/08 09:40:47;;;;;;;5.07;2.65;;;;;;;;;;6185154;23;20005;-77
2023/03/08 09:43:20;;;;;;;4.47;2.92;;;;;;;;;;6185385;23;20017;-77
2023/03/08 09:45:46;;;;;;;3.13;2.83;;;;;;;;;;6185299;23;20008;-77
2023/03/08 09:48:32;;;;;;;5.38;3.00;;;;;;;;;;6185328;23;20002;-77
2023/03/08 09:51:04;;;;;;;2.80;2.50;;;;;;;;;;6184752;23;20084;-77
2023/03/08 09:53:33;;;;;;;5.43;3.05;;;;;;;;;;6185079;23;20386;-77
2023/03/08 09:56:19;;;;;;;5.32;2.70;;;;;;;;;;6184782;23;20036;-77
2023/03/08 09:58:52;;;;;;;3.65;2.55;;;;;;;;;;6185875;23;20001;-77
2023/03/08 10:01:22;;;;;;;4.57;2.40;;;;;;;;;;6187025;23;20001;-77
2023/03/08 10:04:03;;;;;;;3.47;2.40;;;;;;;;;;6187057;23;20012;-77
2023/03/08 10:06:32;;;;;;;2.13;1.90;;;;;;;;;;6187222;23;20000;-78
2023/03/08 10:09:17;;;;;;;3.55;1.75;;;;;;;;;;6188076;23;20080;-78
2023/03/08 10:11:47;;;;;;;3.00;0.82;;;;;;;;;;6187786;23;19993;-78
2023/03/08 10:14:18;;;;;;;1.48;0.65;;;;;;;;;;6187698;23;20072;-78
2023/03/08 10:16:55;;;;;;;1.90;1.70;;;;;;;;;;6187389;23;20001;-78
2023/03/08 10:19:21;;;;;;;2.88;1.23;;;;;;;;;;6187897;23;20051;-78
2023/03/08 10:21:53;;;;;;;1.58;1.00;;;;;;;;;;6188945;23;19997;-80
2023/03/08 10:24:28;;;;;;;1.95;1.20;;;;;;;;;;6187077;23;20084;-78
2023/03/08 10:27:00;;;;;;;4.30;1.40;;;;;;;;;;6186678;23;20412;-77
2023/03/08 10:29:26;;;;;;;1.35;1.23;;;;;;;;;;6186679;23;19997;-77
2023/03/08 10:31:51;;;;;;;3.53;1.27;;;;;;;;;;6186131;23;20005;-77
2023/03/08 10:34:23;;;;;;;2.97;1.15;;;;;;;;;;6186089;23;20308;-77
2023/03/08 10:36:51;;;;;;;1.40;1.10;;;;;;;;;;6186719;23;20494;-77
2023/03/08 10:39:19;;;;;;;1.50;1.00;;;;;;;;;;6186414;23;20001;-77
2023/03/08 10:41:49;;;;;;;1.58;1.10;;;;;;;;;;6187324;23;20076;-77
2023/03/08 10:44:35;;;;;;;1.42;0.77;;;;;;;;;;6186636;23;20008;-77
2023/03/08 10:47:02;;;;;;;2.65;1.05;;;;;;;;;;6186688;23;19997;-77
2023/03/08 10:49:28;;;;;;;4.03;1.10;;;;;;;;;;6186311;23;20056;-77
2023/03/08 10:51:59;;;;;;;3.00;1.10;;;;;;;;;;6186488;23;20080;-77
2023/03/08 10:54:25;;;;;;;;;;;;;;;;;;6187841;23;20068;-78
2023/03/08 10:57:01;;;;;;;1.90;1.30;;;;;;;;;;6188345;23;19919;-78
2023/03/08 10:59:31;;;;;;;2.03;1.38;;;;;;;;;;6188077;23;20001;-79
2023/03/08 11:02:21;;;;;;;2.78;1.27;;;;;;;;;;6187888;23;19998;-79
2023/03/08 11:04:59;;;;;;;4.95;1.40;;;;;;;;;;6188690;23;20323;-78
2023/03/08 11:07:30;;;;;;;3.55;1.90;;;;;;;;;;6186148;23;20096;-78
2023/03/08 11:10:11;;;;;;;3.75;1.25;;;;;;;;;;6187122;23;20005;-78
2023/03/08 11:12:37;;;;;;;3.67;1.80;;;;;;;;;;6187755;23;19993;-78
2023/03/08 11:15:12;;;;;;;1.52;1.17;;;;;;;;;;6187841;23;20055;-78
2023/03/08 11:17:54;;;;;;;2.75;1.60;;;;;;;;;;6188672;23;20001;-78
2023/03/08 11:20:47;;;;;;;1.77;1.10;;;;;;;;;;6189535;23;20001;-78
2023/03/08 11:23:31;;;;;;;2.28;1.52;;;;;;;;;;6155218;23;20032;-79
2023/03/08 11:26:15;;;;;;;2.40;1.10;;;;;;;;;;6187619;23;20067;-78
2023/03/08 11:28:41;;;;;;;2.25;1.00;;;;;;;;;;6187644;23;20068;-78
2023/03/08 11:31:22;;;;;;;1.00;0.75;;;;;;;;;;6187234;23;20323;-79
2023/03/08 11:33:51;;;;;;;2.20;0.60;;;;;;;;;;6161711;23;20612;-79
2023/03/08 11:36:24;;;;;;;0.98;0.40;;;;;;;;;;6187389;23;20004;-79
2023/03/08 11:38:57;;;;;;;1.52;0.75;;;;;;;;;;6188133;23;20001;-79
2023/03/08 11:41:40;;;;;;;1.95;0.70;;;;;;;;;;6187246;23;20004;-79
2023/03/08 11:44:15;;;;;;;3.28;0.70;;;;;;;;;;6187544;23;20005;-79
2023/03/08 11:46:55;;;;;;;2.30;0.93;;;;;;;;;;6187305;23;20004;-79
2023/03/08 11:49:40;;;;;;;0.82;0.50;;;;;;;;;;6186793;23;20004;-79
2023/03/08 11:52:31;;;;;;;1.52;0.90;;;;;;;;;;6186491;23;20071;-79
2023/03/08 11:55:19;;;;;;;2.65;0.65;;;;;;;;;;6159750;23;20056;-79
2023/03/08 11:57:48;;;;;;;2.72;0.80;;;;;;;;;;6187123;23;20009;-78
2023/03/08 12:00:33;;;;;;;4.63;0.68;;;;;;;;;;6187065;23;20435;-79
2023/03/08 12:03:05;;;;;;;0.98;0.70;;;;;;;;;;6186562;23;20076;-79
2023/03/08 12:05:38;;;;;;;3.58;0.52;;;;;;;;;;6186033;23;20549;-78
2023/03/08 12:08:16;;;;;;;1.92;0.80;;;;;;;;;;6160214;23;20004;-78
2023/03/08 12:10:43;;;;;;;0.63;0.60;;;;;;;;;;6187692;23;20051;-78
2023/03/08 12:13:25;;;;;;;2.60;0.98;;;;;;;;;;6186115;23;20416;-78
2023/03/08 12:15:56;;;;;;;6.60;1.00;;;;;;;;;;6185754;23;19993;-78
2023/03/08 12:18:22;;;;;;;2.67;0.55;;;;;;;;;;6185960;23;20045;-78
2023/03/08 12:20:49;;;;;;;3.30;0.50;;;;;;;;;;6159424;23;20427;-78
2023/03/08 12:23:44;;;;;;;1.90;0.60;;;;;;;;;;6186116;23;20585;-78
2023/03/08 12:26:17;;;;;;;1.85;0.40;;;;;;;;;;6080453;23;20418;-79
2023/03/08 12:28:44;;;;;;;1.42;0.60;;;;;;;;;;6186794;23;20360;-78
2023/03/08 12:31:18;;;;;;;1.98;0.70;;;;;;;;;;6186457;23;20032;-78
2023/03/08 12:33:45;;;;;;;2.30;0.98;;;;;;;;;;6186489;23;19997;-78
2023/03/08 12:36:11;;;;;;;1.25;0.60;;;;;;;;;;6185857;23;20009;-78
2023/03/08 12:38:41;;;;;;;2.30;0.70;;;;;;;;;;6185652;23;20001;-78
2023/03/08 12:41:20;;;;;;;2.30;0.55;;;;;;;;;;6187050;23;20001;-78
2023/03/08 12:43:46;;;;;;;0.80;0.45;;;;;;;;;;6186633;23;20005;-78
2023/03/08 12:46:13;;;;;;;2.38;0.80;;;;;;;;;;6185957;23;20059;-78
2023/03/08 12:48:47;;;;;;;2.47;0.80;;;;;;;;;;6159752;23;20355;-78
2023/03/08 12:51:13;;;;;;;1.10;0.60;;;;;;;;;;6186130;23;19997;-78
2023/03/08 12:53:48;;;;;;;0.50;0.47;;;;;;;;;;6185895;23;20008;-78
2023/03/08 12:56:26;;;;;;;2.55;0.77;;;;;;;;;;6185318;23;20043;-78
2023/03/08 12:58:57;;;;;;;1.80;0.90;;;;;;;;;;6186095;23;20001;-78
2023/03/08 13:01:33;;;;;;;3.13;0.88;;;;;;;;;;6185957;23;20012;-78
2023/03/08 13:03:59;;;;;;;2.25;0.75;;;;;;;;;;6185740;23;20450;-78
2023/03/08 13:06:25;;;;;;;3.50;0.80;;;;;;;;;;6187159;23;19997;-79
2023/03/08 13:08:57;;;;;;;1.73;0.70;;;;;;;;;;6186872;23;19997;-79
2023/03/08 13:11:25;;;;;;;2.80;0.88;;;;;;;;;;6185914;23;20009;-79
2023/03/08 13:14:00;;;;;;;0.90;0.68;;;;;;;;;;6185689;23;20000;-79
2023/03/08 13:16:31;;;;;;;2.60;0.70;;;;;;;;;;6186894;23;20438;-78
2023/03/08 13:19:02;;;;;;;0.77;0.60;;;;;;;;;;6187002;23;20076;-78
2023/03/08 13:21:34;;;;;;;2.53;0.73;;;;;;;;;;6186281;23;20005;-78
2023/03/08 13:24:06;;;;;;;2.47;0.80;;;;;;;;;;6186881;23;20036;-79
2023/03/08 13:27:04;;;;;;;1.80;0.60;;;;;;;;;;6185959;23;20466;-78
2023/03/08 13:29:33;;;;;;;1.35;0.50;;;;;;;;;;6159822;23;20001;-78
2023/03/08 13:32:20;;;;;;;3.25;0.90;;;;;;;;;;6185614;23;20004;-79
2023/03/08 13:34:57;;;;;;;3.17;0.98;;;;;;;;;;6186780;23;20004;-78
2023/03/08 13:37:27;;;;;;;3.13;0.70;;;;;;;;;;6187852;23;20001;-79
2023/03/08 13:39:54;;;;;;;2.15;0.60;;;;;;;;;;6187107;23;20446;-79
2023/03/08 13:42:23;;;;;;;0.43;0.43;;;;;;;;;;6186586;23;20009;-79
2023/03/08 13:44:49;;;;;;;2.05;0.80;;;;;;;;;;6187283;23;20009;-79
2023/03/08 13:47:21;;;;;;;2.95;0.60;;;;;;;;;;6185579;23;20017;-79
2023/03/08 13:49:49;;;;;;;1.15;0.70;;;;;;;;;;6187180;23;20059;-78
2023/03/08 13:52:23;;;;;;;1.05;0.60;;;;;;;;;;6188889;23;20360;-78
2023/03/08 13:54:52;;;;;;;3.30;1.02;;;;;;;;;;6188719;23;20055;-79
2023/03/08 13:57:21;;;;;;;0.73;0.50;;;;;;;;;;6188736;23;20020;-78
2023/03/08 13:59:48;;;;;;;2.05;0.70;;;;;;;;;;6187078;23;20099;-79
2023/03/08 14:02:19;;;;;;;3.13;0.80;;;;;;;;;;6187008;23;20091;-78
2023/03/08 14:04:45;;;;;;;1.33;0.50;;;;;;;;;;6187506;23;20084;-79
2023/03/08 14:07:19;;;;;;;3.30;0.70;;;;;;;;;;6188316;23;20001;-78
2023/03/08 14:09:44;;;;;;;3.35;0.90;;;;;;;;;;6188525;23;20001;-79
2023/03/08 14:12:20;;;;;;;3.78;0.80;;;;;;;;;;6188751;23;20027;-79
2023/03/08 14:14:59;;;;;;;2.85;0.95;;;;;;;;;;6188497;23;20060;-79
2023/03/08 14:17:26;;;;;;;1.40;0.70;;;;;;;;;;6189346;23;20028;-79
2023/03/08 14:19:54;;;;;;;2.08;0.70;;;;;;;;;;6190079;23;20021;-79
2023/03/08 14:22:21;;;;;;;4.35;0.77;;;;;;;;;;6187999;23;20273;-78
2023/03/08 14:24:50;;;;;;;1.33;0.60;;;;;;;;;;6161741;23;20016;-78
2023/03/08 14:27:16;;;;;;;1.35;0.80;;;;;;;;;;6187594;23;20062;-78
2023/03/08 14:29:43;;;;;;;3.22;0.80;;;;;;;;;;6187003;23;20351;-78
2023/03/08 14:32:12;;;;;;;0.70;0.63;;;;;;;;;;6186694;23;20005;-78
2023/03/08 14:34:39;;;;;;;1.13;0.60;;;;;;;;;;6186876;23;20044;-78
2023/03/08 14:37:11;;;;;;;1.08;0.80;;;;;;;;;;6186932;23;20080;-78
2023/03/08 14:39:45;;;;;;;1.85;0.68;;;;;;;;;;6187072;23;20000;-78
2023/03/08 14:42:21;;;;;;;2.05;0.60;;;;;;;;;;6161258;23;20006;-78
2023/03/08 14:44:51;;;;;;;2.08;1.10;;;;;;;;;;6186769;23;20009;-78
2023/03/08 14:47:20;;;;;;;2.78;0.80;;;;;;;;;;6187278;23;20001;-78
2023/03/08 14:49:54;;;;;;;2.75;0.80;;;;;;;;;;6187327;23;20401;-78
2023/03/08 14:52:20;;;;;;;2.15;0.80;;;;;;;;;;6186816;23;20048;-78
2023/03/08 14:54:50;;;;;;;2.65;0.93;;;;;;;;;;6186411;23;19997;-78